Time;durP1;ratioP1;P1;durP2;ratioP2;P2;SDS_P1;SDS_P2;PMS_P1;PMS_P2;Temp;Humidity;BMP_temperature;BMP_pressure;BME280_temperature;BME280_humidity;BME280_pressure;Samples;Min_cycle;Max_cycle;Signal;HPM_P1;HPM_P2
2020/12/27 00:00:42;;;;;;;2.10;1.00;;;5.20;79.40;;;;;;5048993;28;20413;-86
2020/12/27 00:03:08;;;;;;;2.37;1.10;;;5.20;79.40;;;;;;5049670;28;20032;-87
2020/12/27 00:05:34;;;;;;;2.43;1.10;;;5.20;79.50;;;;;;5049294;28;20055;-86
2020/12/27 00:07:59;;;;;;;1.50;0.93;;;5.20;79.50;;;;;;5048387;28;20378;-87
2020/12/27 00:10:25;;;;;;;2.40;1.23;;;5.20;79.70;;;;;;5048184;28;20049;-87
2020/12/27 00:12:51;;;;;;;1.93;1.10;;;5.20;79.50;;;;;;5047785;28;20488;-86
2020/12/27 00:15:17;;;;;;;1.87;1.10;;;5.20;79.40;;;;;;5048002;28;20501;-86
2020/12/27 00:17:45;;;;;;;2.67;1.20;;;5.20;79.90;;;;;;5047952;28;20033;-86
2020/12/27 00:20:11;;;;;;;1.83;1.03;;;5.20;79.60;;;;;;5042106;28;20083;-85
2020/12/27 00:22:37;;;;;;;2.40;1.30;;;5.20;79.60;;;;;;5035208;28;20033;-86
2020/12/27 00:25:03;;;;;;;1.80;1.00;;;5.20;79.80;;;;;;5035505;28;20032;-85
2020/12/27 00:27:29;;;;;;;3.17;1.30;;;5.20;79.40;;;;;;5035309;28;20057;-85
2020/12/27 00:29:55;;;;;;;2.20;1.00;;;5.20;79.60;;;;;;5034453;28;20063;-85
2020/12/27 00:32:20;;;;;;;1.90;1.00;;;5.20;79.70;;;;;;5052929;28;20463;-85
2020/12/27 00:34:46;;;;;;;1.70;0.97;;;5.20;79.40;;;;;;5052877;28;20058;-85
2020/12/27 00:37:12;;;;;;;2.90;1.20;;;5.20;79.50;;;;;;5035008;28;20102;-85
2020/12/27 00:39:37;;;;;;;2.23;1.00;;;5.20;79.50;;;;;;5052167;28;20036;-86
2020/12/27 00:42:03;;;;;;;1.57;0.80;;;5.20;79.50;;;;;;5034661;28;20033;-85
2020/12/27 00:44:29;;;;;;;1.40;0.80;;;5.20;79.70;;;;;;5034844;28;20401;-85
2020/12/27 00:46:56;;;;;;;2.90;0.97;;;5.20;79.60;;;;;;5034858;28;20025;-85
2020/12/27 00:49:22;;;;;;;1.73;0.90;;;5.20;79.50;;;;;;5034352;28;20114;-85
2020/12/27 00:51:50;;;;;;;2.03;1.13;;;5.10;79.90;;;;;;5052709;28;20484;-86
2020/12/27 00:54:16;;;;;;;2.03;0.93;;;5.10;79.70;;;;;;5034811;28;20025;-86
2020/12/27 00:56:42;;;;;;;2.17;1.07;;;5.10;79.50;;;;;;5034710;28;20033;-85
2020/12/27 00:59:07;;;;;;;1.30;0.70;;;5.10;79.50;;;;;;5034112;28;20055;-85
2020/12/27 01:01:33;;;;;;;1.27;0.80;;;5.10;79.60;;;;;;5052599;28;20083;-85
2020/12/27 01:03:59;;;;;;;1.27;0.80;;;5.00;79.90;;;;;;5034664;28;20037;-85
2020/12/27 01:06:26;;;;;;;1.87;0.80;;;5.10;79.70;;;;;;5052515;28;20039;-85
2020/12/27 01:08:53;;;;;;;1.57;0.80;;;5.10;79.70;;;;;;5034242;28;20112;-85
2020/12/27 01:11:19;;;;;;;1.53;0.83;;;5.10;80.00;;;;;;5034689;28;20124;-86
2020/12/27 01:13:45;;;;;;;2.30;0.93;;;5.10;79.70;;;;;;5034506;28;20120;-85
2020/12/27 01:16:11;;;;;;;1.43;0.80;;;5.10;79.60;;;;;;5052335;28;20067;-85
2020/12/27 01:18:39;;;;;;;2.03;1.03;;;5.10;79.70;;;;;;5034500;28;20033;-85
2020/12/27 01:21:04;;;;;;;3.37;1.00;;;5.10;79.80;;;;;;5033931;28;20143;-85
2020/12/27 01:23:30;;;;;;;1.57;0.90;;;5.10;79.50;;;;;;5034491;28;20509;-85
2020/12/27 01:25:56;;;;;;;2.60;0.93;;;5.10;79.70;;;;;;5052385;28;20029;-85
2020/12/27 01:28:21;;;;;;;2.03;1.07;;;5.10;79.70;;;;;;5034345;28;20025;-86
2020/12/27 01:30:47;;;;;;;1.10;0.70;;;5.10;79.70;;;;;;5033702;28;20363;-85
2020/12/27 01:33:12;;;;;;;1.63;0.73;;;5.10;79.70;;;;;;5034254;28;20025;-86
2020/12/27 01:35:38;;;;;;;1.10;0.70;;;5.10;79.90;;;;;;5034484;28;20032;-86
2020/12/27 01:38:04;;;;;;;1.47;0.80;;;5.00;79.30;;;;;;5034504;28;20470;-85
2020/12/27 01:40:29;;;;;;;2.33;0.70;;;5.00;79.40;;;;;;5051589;28;20037;-85
2020/12/27 01:42:56;;;;;;;1.50;0.80;;;5.00;80.30;;;;;;5051948;28;20100;-86
2020/12/27 01:45:22;;;;;;;1.10;0.60;;;5.00;79.60;;;;;;5051970;28;20025;-85
2020/12/27 01:47:50;;;;;;;0.80;0.60;;;5.00;79.70;;;;;;5034323;28;20079;-85
2020/12/27 01:50:17;;;;;;;1.27;0.70;;;5.00;79.60;;;;;;5034050;28;20029;-85
2020/12/27 01:52:42;;;;;;;2.00;0.70;;;5.00;79.50;;;;;;5034589;28;20469;-85
2020/12/27 01:55:11;;;;;;;0.93;0.60;;;5.00;79.20;;;;;;5035192;28;20029;-85
2020/12/27 01:57:58;;;;;;;0.97;0.60;;;5.00;80.00;;;;;;5053246;28;20033;-85
2020/12/27 02:00:23;;;;;;;1.47;0.80;;;5.00;79.50;;;;;;5034388;28;20074;-85
2020/12/27 02:02:52;;;;;;;1.80;0.80;;;5.00;79.30;;;;;;5034581;28;20051;-85
2020/12/27 02:05:18;;;;;;;1.77;0.70;;;5.00;79.40;;;;;;5056430;28;20029;-85
2020/12/27 02:07:45;;;;;;;1.97;0.80;;;5.00;79.00;;;;;;5059597;28;20180;-84
2020/12/27 02:10:11;;;;;;;1.33;0.73;;;5.00;79.00;;;;;;5069184;28;20043;-85
2020/12/27 02:12:37;;;;;;;1.77;0.80;;;5.00;79.00;;;;;;5047216;28;20025;-85
2020/12/27 02:15:04;;;;;;;1.07;0.60;;;5.00;79.40;;;;;;5037235;28;20035;-85
2020/12/27 02:17:30;;;;;;;1.90;0.70;;;5.00;79.20;;;;;;5043038;28;20025;-85
2020/12/27 02:19:55;;;;;;;1.23;0.83;;;5.00;79.30;;;;;;5047044;28;20025;-85
2020/12/27 02:22:21;;;;;;;1.10;0.60;;;5.00;79.30;;;;;;5043109;28;20044;-85
2020/12/27 02:24:49;;;;;;;1.47;0.70;;;5.00;79.20;;;;;;5040634;28;20037;-85
2020/12/27 02:27:14;;;;;;;0.73;0.53;;;5.00;79.20;;;;;;5060222;28;20052;-85
2020/12/27 02:29:40;;;;;;;0.83;0.60;;;5.00;79.20;;;;;;5037517;28;20029;-85
2020/12/27 02:32:06;;;;;;;2.73;1.00;;;5.00;79.20;;;;;;5034929;28;20079;-85
2020/12/27 02:34:31;;;;;;;1.53;0.77;;;5.00;79.10;;;;;;5034251;28;20091;-85
2020/12/27 02:36:57;;;;;;;1.13;0.70;;;5.00;79.00;;;;;;5035090;28;20035;-86
2020/12/27 02:39:23;;;;;;;1.97;0.80;;;5.00;78.90;;;;;;5054467;28;20528;-85
2020/12/27 02:41:51;;;;;;;1.10;0.67;;;5.00;78.80;;;;;;5055572;28;20025;-85
2020/12/27 02:44:18;;;;;;;0.85;0.63;;;5.10;79.00;;;;;;5037276;28;20047;-85
2020/12/27 02:46:44;;;;;;;1.50;0.80;;;5.10;78.60;;;;;;5036941;28;20051;-85
2020/12/27 02:49:10;;;;;;;1.30;0.77;;;5.10;78.80;;;;;;5037092;28;20025;-85
2020/12/27 02:51:36;;;;;;;1.90;0.90;;;5.10;78.90;;;;;;5039899;28;20036;-85
2020/12/27 02:54:02;;;;;;;1.80;0.87;;;5.10;78.60;;;;;;5040274;28;20032;-85
2020/12/27 02:56:28;;;;;;;3.13;1.27;;;5.10;78.50;;;;;;5037332;28;20071;-85
2020/12/27 02:58:57;;;;;;;1.20;0.87;;;5.10;78.50;;;;;;5036048;28;20036;-85
2020/12/27 03:01:22;;;;;;;1.90;0.70;;;5.10;78.20;;;;;;5054442;28;20047;-85
2020/12/27 03:03:48;;;;;;;1.13;0.80;;;5.10;78.00;;;;;;5036526;28;20529;-85
2020/12/27 03:06:14;;;;;;;1.60;0.80;;;5.20;78.20;;;;;;5054370;28;20028;-86
2020/12/27 03:08:40;;;;;;;0.77;0.60;;;5.20;77.60;;;;;;5036572;28;20116;-85
2020/12/27 03:11:07;;;;;;;1.60;0.60;;;5.20;77.40;;;;;;5053516;28;20033;-85
2020/12/27 03:13:33;;;;;;;1.30;0.63;;;5.20;77.60;;;;;;5036251;28;20029;-86
2020/12/27 03:16:04;;;;;;;2.93;0.80;;;5.20;77.60;;;;;;5054206;28;20025;-85
2020/12/27 03:18:30;;;;;;;2.10;0.60;;;5.20;77.30;;;;;;5036328;28;20032;-85
2020/12/27 03:20:57;;;;;;;0.93;0.70;;;5.20;77.60;;;;;;5035356;28;20036;-85
2020/12/27 03:23:22;;;;;;;3.20;1.00;;;5.20;77.40;;;;;;5036091;28;20035;-85
2020/12/27 03:25:48;;;;;;;1.53;0.70;;;5.20;77.50;;;;;;5034884;28;20464;-85
2020/12/27 03:28:14;;;;;;;1.37;0.70;;;5.20;77.20;;;;;;5034983;28;20032;-85
2020/12/27 03:30:40;;;;;;;1.13;0.63;;;5.20;77.20;;;;;;5053393;28;20033;-85
2020/12/27 03:33:06;;;;;;;1.20;0.60;;;5.20;77.40;;;;;;5053699;28;20474;-85
2020/12/27 03:35:32;;;;;;;0.77;0.67;;;5.10;76.90;;;;;;5035848;28;20033;-85
2020/12/27 03:37:57;;;;;;;0.97;0.50;;;5.10;77.20;;;;;;5053736;28;20029;-85
2020/12/27 03:40:23;;;;;;;0.80;0.50;;;5.20;76.80;;;;;;5052988;28;20051;-85
2020/12/27 03:42:49;;;;;;;2.83;0.80;;;5.20;76.80;;;;;;5035716;28;20035;-85
2020/12/27 03:45:15;;;;;;;1.00;0.60;;;5.20;76.90;;;;;;5053567;28;20029;-85
2020/12/27 03:47:40;;;;;;;2.13;0.60;;;5.10;76.40;;;;;;5035306;28;20029;-84
2020/12/27 03:50:06;;;;;;;1.27;0.70;;;5.10;76.40;;;;;;5034502;28;20397;-86
2020/12/27 03:52:32;;;;;;;0.90;0.50;;;5.20;76.70;;;;;;5035686;28;20536;-85
2020/12/27 03:54:58;;;;;;;1.07;0.60;;;5.10;76.20;;;;;;5035595;28;20067;-86
2020/12/27 03:57:23;;;;;;;0.77;0.60;;;5.10;76.60;;;;;;5035402;28;20036;-85
2020/12/27 03:59:49;;;;;;;1.20;0.50;;;5.10;76.30;;;;;;5052880;28;20511;-85
2020/12/27 04:02:15;;;;;;;0.80;0.60;;;5.10;76.20;;;;;;5035362;28;20037;-85
2020/12/27 04:04:41;;;;;;;0.87;0.57;;;5.10;76.10;;;;;;5053146;28;20029;-86
2020/12/27 04:07:06;;;;;;;1.07;0.57;;;5.10;76.30;;;;;;5035234;28;20031;-86
2020/12/27 04:09:32;;;;;;;0.70;0.50;;;5.10;76.20;;;;;;5034474;28;20062;-86
2020/12/27 04:11:58;;;;;;;1.03;0.50;;;5.10;76.10;;;;;;5035155;28;20115;-86
2020/12/27 04:14:24;;;;;;;0.50;0.40;;;5.10;76.10;;;;;;5053206;28;20029;-86
2020/12/27 04:16:50;;;;;;;1.00;0.60;;;5.10;76.10;;;;;;5035213;28;20029;-85
2020/12/27 04:19:15;;;;;;;0.50;0.50;;;5.10;76.10;;;;;;5034529;28;20059;-86
2020/12/27 04:21:45;;;;;;;0.33;0.30;;;5.10;76.30;;;;;;5034920;28;20149;-86
2020/12/27 04:24:11;;;;;;;0.77;0.50;;;5.10;76.30;;;;;;5035127;28;20745;-86
2020/12/27 04:26:37;;;;;;;0.77;0.50;;;5.10;76.30;;;;;;5034985;28;20025;-86
2020/12/27 04:29:02;;;;;;;0.50;0.40;;;5.20;76.20;;;;;;5034372;28;20154;-86
2020/12/27 04:31:28;;;;;;;1.57;0.60;;;5.20;76.00;;;;;;5034847;28;20397;-86
2020/12/27 04:33:54;;;;;;;0.63;0.33;;;5.20;76.20;;;;;;5053347;28;20056;-86
2020/12/27 04:36:20;;;;;;;1.90;0.43;;;5.20;76.30;;;;;;5036783;28;20025;-85
2020/12/27 04:38:46;;;;;;;0.67;0.40;;;5.20;76.30;;;;;;5054567;28;20107;-85
2020/12/27 04:41:16;;;;;;;0.47;0.30;;;5.20;76.40;;;;;;5038335;28;20119;-85
2020/12/27 04:43:44;;;;;;;0.30;0.30;;;5.20;77.10;;;;;;5041998;28;20033;-85
2020/12/27 04:46:11;;;;;;;0.40;0.40;;;5.10;76.40;;;;;;5058085;28;20070;-85
2020/12/27 04:48:41;;;;;;;0.63;0.47;;;5.20;76.20;;;;;;5057155;28;20036;-85
2020/12/27 04:51:09;;;;;;;0.30;0.30;;;5.20;76.20;;;;;;5049294;28;20043;-84
2020/12/27 04:53:36;;;;;;;1.53;0.40;;;5.20;76.30;;;;;;5047478;28;20032;-85
2020/12/27 04:56:03;;;;;;;2.03;0.37;;;5.20;76.30;;;;;;5038298;28;20084;-85
2020/12/27 04:58:29;;;;;;;1.20;0.50;;;5.20;76.20;;;;;;5037336;28;20039;-85
2020/12/27 05:00:59;;;;;;;0.57;0.20;;;5.20;76.30;;;;;;5033581;28;20029;-85
2020/12/27 05:03:25;;;;;;;0.30;0.30;;;5.10;76.00;;;;;;5034409;28;20029;-86
2020/12/27 05:05:51;;;;;;;0.70;0.30;;;5.10;76.20;;;;;;5051894;28;20029;-85
2020/12/27 05:08:18;;;;;;;0.30;0.30;;;5.10;76.40;;;;;;5034523;28;20029;-85
2020/12/27 05:10:44;;;;;;;0.30;0.30;;;5.10;76.10;;;;;;5033692;28;20021;-86
2020/12/27 05:13:11;;;;;;;0.33;0.27;;;5.20;76.00;;;;;;5034287;28;20029;-85
2020/12/27 05:15:38;;;;;;;0.57;0.30;;;5.20;76.30;;;;;;5034302;28;20033;-85
2020/12/27 05:18:04;;;;;;;0.33;0.27;;;5.20;76.00;;;;;;5051943;28;20036;-85
2020/12/27 05:20:35;;;;;;;1.17;0.30;;;5.10;76.30;;;;;;5033784;28;20492;-86
2020/12/27 05:23:03;;;;;;;0.97;0.40;;;5.10;76.00;;;;;;5036946;28;20127;-86
2020/12/27 05:25:29;;;;;;;0.33;0.20;;;5.20;76.10;;;;;;5036288;28;20029;-85
2020/12/27 05:28:00;;;;;;;0.20;0.20;;;5.10;75.80;;;;;;5036262;28;20029;-85
2020/12/27 05:30:27;;;;;;;0.30;0.20;;;5.10;76.00;;;;;;5035691;28;20033;-86
2020/12/27 05:32:53;;;;;;;1.50;0.40;;;5.20;75.90;;;;;;5036010;28;20025;-86
2020/12/27 05:35:20;;;;;;;0.33;0.20;;;5.20;76.10;;;;;;5036039;28;20025;-85
2020/12/27 05:37:46;;;;;;;1.43;0.20;;;5.10;76.10;;;;;;5053639;28;20021;-86
2020/12/27 05:40:13;;;;;;;0.20;0.20;;;5.10;76.20;;;;;;5035631;28;20025;-85
2020/12/27 05:42:39;;;;;;;0.60;0.30;;;5.10;76.20;;;;;;5036134;28;20628;-85
2020/12/27 05:45:31;;;;;;;0.87;0.40;;;5.10;76.30;;;;;;5036065;28;20486;-86
2020/12/27 05:47:59;;;;;;;0.20;0.20;;;5.20;76.40;;;;;;5052261;28;20493;-86
2020/12/27 05:50:26;;;;;;;0.40;0.40;;;5.10;76.00;;;;;;5033729;28;20112;-85
2020/12/27 05:53:00;;;;;;;1.10;0.40;;;5.20;76.80;;;;;;5051703;28;20071;-85
2020/12/27 05:55:27;;;;;;;0.87;0.33;;;5.20;76.00;;;;;;5033838;28;20057;-85
2020/12/27 05:57:54;;;;;;;2.20;0.70;;;5.20;76.20;;;;;;5033712;28;20031;-85
2020/12/27 06:00:23;;;;;;;0.40;0.30;;;5.20;76.80;;;;;;5050828;28;20630;-86
2020/12/27 06:03:01;;;;;;;0.70;0.40;;;5.10;76.30;;;;;;5034137;28;20036;-86
2020/12/27 06:05:51;;;;;;;0.37;0.10;;;5.20;76.10;;;;;;5051724;28;20025;-85
2020/12/27 06:09:02;;;;;;;0.50;0.20;;;5.20;75.70;;;;;;5033633;28;20029;-86
2020/12/27 06:11:45;;;;;;;0.53;0.50;;;5.20;76.00;;;;;;5029008;28;20036;-86
2020/12/27 06:14:14;;;;;;;0.40;0.30;;;5.20;75.90;;;;;;5055215;28;20028;-85
2020/12/27 06:16:54;;;;;;;0.25;0.20;;;5.20;76.00;;;;;;5037556;28;20021;-86
2020/12/27 06:19:26;;;;;;;0.37;0.23;;;5.20;76.10;;;;;;5059752;23;20557;-81
2020/12/27 06:22:08;;;;;;;1.00;0.30;;;5.30;76.10;;;;;;5015542;28;20062;-80
2020/12/27 06:24:34;;;;;;;0.60;0.20;;;5.20;76.00;;;;;;5015813;28;20080;-80
2020/12/27 06:27:01;;;;;;;0.93;0.30;;;5.30;76.20;;;;;;5016108;28;20022;-81
2020/12/27 06:29:40;;;;;;;0.90;0.37;;;5.30;76.30;;;;;;5015286;28;20524;-80
2020/12/27 06:32:08;;;;;;;0.32;0.20;;;5.20;76.50;;;;;;4997854;28;20044;-80
2020/12/27 06:34:34;;;;;;;0.20;0.20;;;5.30;76.50;;;;;;4998074;28;20040;-80
2020/12/27 06:37:08;;;;;;;0.37;0.10;;;5.30;76.40;;;;;;5016042;28;20021;-81
2020/12/27 06:39:33;;;;;;;1.07;0.30;;;5.30;76.40;;;;;;4997513;28;20147;-80
2020/12/27 06:42:16;;;;;;;2.43;0.20;;;5.30;76.70;;;;;;5015926;28;20053;-81
2020/12/27 06:44:43;;;;;;;0.17;0.10;;;5.30;77.10;;;;;;5015766;28;20036;-80
2020/12/27 06:47:10;;;;;;;0.27;0.23;;;5.30;76.60;;;;;;5015923;28;20433;-80
2020/12/27 06:49:35;;;;;;;0.40;0.20;;;5.30;76.60;;;;;;5015079;28;20068;-80
2020/12/27 06:52:22;;;;;;;2.40;0.40;;;5.30;76.70;;;;;;5015547;28;20034;-80
2020/12/27 06:54:53;;;;;;;0.93;0.20;;;5.30;76.50;;;;;;5015483;28;20034;-80
2020/12/27 06:57:46;;;;;;;2.47;0.30;;;5.30;76.30;;;;;;5015527;28;20083;-80
2020/12/27 07:00:26;;;;;;;0.20;0.17;;;5.30;76.60;;;;;;5014935;28;20058;-81
2020/12/27 07:03:27;;;;;;;1.50;0.60;;;5.40;76.70;;;;;;5015570;28;20037;-80
2020/12/27 07:05:53;;;;;;;0.93;0.50;;;5.30;76.40;;;;;;4938606;29;20027;-81
2020/12/27 07:08:41;;;;;;;1.00;0.40;;;5.30;76.50;;;;;;5002947;28;20372;-81
2020/12/27 07:11:07;;;;;;;1.10;0.60;;;5.40;76.60;;;;;;5015192;28;20022;-82
2020/12/27 07:13:40;;;;;;;1.33;0.40;;;5.40;76.80;;;;;;5015587;28;20495;-82
2020/12/27 07:16:10;;;;;;;1.03;0.40;;;5.40;76.90;;;;;;5015643;28;20048;-83
2020/12/27 07:18:36;;;;;;;0.65;0.20;;;5.40;76.60;;;;;;5015870;28;20029;-82
2020/12/27 07:21:02;;;;;;;0.20;0.10;;;5.40;76.50;;;;;;4997426;28;20033;-82
2020/12/27 07:23:32;;;;;;;0.13;0.10;;;5.40;76.80;;;;;;4997818;28;20124;-82
2020/12/27 07:26:00;;;;;;;0.70;0.20;;;5.40;77.40;;;;;;5015748;28;20022;-82
2020/12/27 07:28:27;;;;;;;1.03;0.30;;;5.40;77.10;;;;;;5015276;28;20437;-82
2020/12/27 07:31:01;;;;;;;0.77;0.10;;;5.40;77.40;;;;;;5014327;28;20402;-83
2020/12/27 07:33:38;;;;;;;0.20;0.10;;;5.40;77.20;;;;;;5015280;28;20022;-81
2020/12/27 07:36:08;;;;;;;0.83;0.20;;;5.40;77.00;;;;;;5015630;28;20026;-82
2020/12/27 07:38:40;;;;;;;0.10;0.10;;;5.50;77.30;;;;;;5015368;28;20026;-83
2020/12/27 07:41:09;;;;;;;0.27;0.20;;;5.40;77.00;;;;;;4997238;28;20028;-82
2020/12/27 07:43:35;;;;;;;1.80;0.30;;;5.40;77.30;;;;;;4997485;28;20030;-83
2020/12/27 07:46:07;;;;;;;0.40;0.10;;;5.40;77.20;;;;;;5015195;28;20053;-82
2020/12/27 07:48:33;;;;;;;1.40;0.17;;;5.40;77.20;;;;;;4997807;28;20033;-82
2020/12/27 07:51:23;;;;;;;1.07;0.30;;;5.40;77.40;;;;;;5014743;28;20026;-83
2020/12/27 07:53:51;;;;;;;0.93;0.30;;;5.40;77.20;;;;;;4997879;28;20077;-82
2020/12/27 07:56:34;;;;;;;0.43;0.20;;;5.40;77.20;;;;;;5016669;28;20026;-82
2020/12/27 07:59:02;;;;;;;0.67;0.10;;;5.40;77.70;;;;;;5016244;28;20037;-82
2020/12/27 08:01:29;;;;;;;0.50;0.20;;;5.50;77.10;;;;;;5015513;28;20037;-82
2020/12/27 08:03:56;;;;;;;0.50;0.20;;;5.50;77.20;;;;;;4998377;28;20379;-82
2020/12/27 08:06:23;;;;;;;0.30;0.20;;;5.50;77.20;;;;;;5015901;28;20030;-81
2020/12/27 08:08:49;;;;;;;1.17;0.20;;;5.50;77.20;;;;;;5014555;28;20096;-82
2020/12/27 08:11:22;;;;;;;0.40;0.30;;;5.50;77.20;;;;;;5014008;28;20030;-82
2020/12/27 08:13:53;;;;;;;0.73;0.20;;;5.50;77.20;;;;;;5014605;28;20029;-81
2020/12/27 08:16:18;;;;;;;0.77;0.17;;;5.50;77.00;;;;;;5014141;28;20419;-82
2020/12/27 08:18:44;;;;;;;0.60;0.20;;;5.50;77.20;;;;;;5014965;28;20064;-82
2020/12/27 08:21:10;;;;;;;2.87;1.37;;;5.50;77.80;;;;;;5014349;28;20034;-83
2020/12/27 08:23:35;;;;;;;1.00;0.30;;;5.50;77.10;;;;;;5014961;28;20386;-81
2020/12/27 08:26:02;;;;;;;1.10;0.30;;;5.50;77.10;;;;;;5014262;28;20030;-82
2020/12/27 08:28:27;;;;;;;1.17;0.20;;;5.50;77.00;;;;;;5014570;28;20026;-81
2020/12/27 08:30:53;;;;;;;1.63;0.30;;;5.50;77.10;;;;;;4995873;28;20429;-82
2020/12/27 08:33:19;;;;;;;1.57;0.30;;;5.50;77.90;;;;;;5013989;28;20033;-81
2020/12/27 08:35:47;;;;;;;1.40;0.30;;;5.50;77.40;;;;;;5012186;28;20087;-82
2020/12/27 08:38:58;;;;;;;0.30;0.10;;;5.50;77.20;;;;;;4996681;28;20033;-82
2020/12/27 08:41:27;;;;;;;0.20;0.10;;;5.60;77.40;;;;;;4953571;29;20392;-81
2020/12/27 08:44:18;;;;;;;0.13;0.10;;;5.50;77.40;;;;;;4937463;29;20118;-82
2020/12/27 08:46:50;;;;;;;0.80;0.30;;;5.60;77.50;;;;;;4996554;28;20041;-82
2020/12/27 08:49:21;;;;;;;2.10;0.13;;;5.50;77.20;;;;;;5013888;28;20475;-82
2020/12/27 08:51:52;;;;;;;0.43;0.20;;;5.60;77.30;;;;;;5014317;28;20030;-82
2020/12/27 08:54:19;;;;;;;0.30;0.20;;;5.60;77.50;;;;;;5014237;28;20022;-83
2020/12/27 08:56:45;;;;;;;0.47;0.20;;;5.60;78.20;;;;;;4997043;28;20032;-82
2020/12/27 08:59:14;;;;;;;0.60;0.20;;;5.60;78.00;;;;;;5013613;28;20038;-82
2020/12/27 09:01:40;;;;;;;;;;;5.50;78.50;;;;;;5014769;28;20026;-82
2020/12/27 09:04:05;;;;;;;0.73;0.27;;;5.50;79.00;;;;;;5013316;28;20290;-81
2020/12/27 09:06:31;;;;;;;1.13;0.40;;;5.50;78.80;;;;;;5013249;28;20471;-82
2020/12/27 09:08:58;;;;;;;0.30;0.20;;;5.50;79.20;;;;;;5012514;28;20018;-82
2020/12/27 09:11:24;;;;;;;0.70;0.60;;;5.50;79.50;;;;;;5011912;28;20113;-81
2020/12/27 09:13:50;;;;;;;0.47;0.37;;;5.50;79.80;;;;;;5012002;28;20050;-82
2020/12/27 09:16:31;;;;;;;0.20;0.10;;;5.50;80.50;;;;;;5013194;28;20044;-82
2020/12/27 09:19:07;;;;;;;1.70;0.37;;;5.50;80.20;;;;;;5012620;28;20021;-82
2020/12/27 09:21:37;;;;;;;0.47;0.20;;;5.50;81.90;;;;;;5012905;28;20100;-81
2020/12/27 09:24:12;;;;;;;1.30;0.27;;;5.40;81.90;;;;;;5013173;28;20054;-82
2020/12/27 09:26:37;;;;;;;0.27;0.20;;;5.40;82.60;;;;;;5013210;28;20029;-82
2020/12/27 09:29:12;;;;;;;0.90;0.27;;;5.40;83.30;;;;;;4995080;28;20018;-83
2020/12/27 09:31:38;;;;;;;0.70;0.20;;;5.40;84.00;;;;;;5013440;28;20113;-82
2020/12/27 09:34:03;;;;;;;1.20;0.20;;;5.30;83.70;;;;;;5013218;28;20053;-83
2020/12/27 09:36:29;;;;;;;1.33;0.37;;;5.30;85.10;;;;;;5013408;28;20033;-81
2020/12/27 09:38:55;;;;;;;1.10;0.70;;;5.30;84.90;;;;;;4995214;28;20030;-81
2020/12/27 09:41:20;;;;;;;1.27;0.20;;;5.30;85.20;;;;;;4995277;28;20080;-81
2020/12/27 09:43:50;;;;;;;1.33;0.20;;;5.30;84.00;;;;;;5014799;28;20026;-82
2020/12/27 09:46:43;;;;;;;4.72;0.60;;;5.30;85.10;;;;;;5014237;28;20025;-82
2020/12/27 09:49:23;;;;;;;0.70;0.30;;;5.20;85.50;;;;;;4998818;28;20554;-80
2020/12/27 09:52:03;;;;;;;;;;;5.20;85.10;;;;;;5017637;28;20395;-80
2020/12/27 09:54:36;;;;;;;0.80;0.30;;;5.30;85.80;;;;;;4999416;28;19952;-80
2020/12/27 09:57:18;;;;;;;0.60;0.30;;;5.20;85.50;;;;;;5016980;28;20026;-80
2020/12/27 09:59:44;;;;;;;1.40;0.60;;;5.20;85.00;;;;;;5016087;28;20022;-81
2020/12/27 10:02:10;;;;;;;0.70;0.30;;;5.20;85.50;;;;;;5017699;28;20021;-82
2020/12/27 10:04:35;;;;;;;0.43;0.30;;;5.20;84.60;;;;;;5018512;28;20371;-81
2020/12/27 10:07:02;;;;;;;0.20;0.20;;;5.20;85.10;;;;;;5020200;28;20471;-82
2020/12/27 10:09:28;;;;;;;0.67;0.33;;;5.20;83.90;;;;;;5018537;28;20030;-82
2020/12/27 10:11:53;;;;;;;1.30;0.53;;;5.20;83.90;;;;;;5018413;28;20067;-82
2020/12/27 10:14:19;;;;;;;0.93;0.30;;;5.20;84.50;;;;;;5000327;28;20021;-82
2020/12/27 10:16:45;;;;;;;0.60;0.30;;;5.30;84.20;;;;;;5018670;28;20080;-82
2020/12/27 10:19:10;;;;;;;1.07;0.30;;;5.20;83.80;;;;;;5000707;28;20592;-81
2020/12/27 10:21:36;;;;;;;1.10;0.43;;;5.20;83.10;;;;;;5018661;28;20034;-82
2020/12/27 10:24:02;;;;;;;1.20;0.33;;;5.30;83.60;;;;;;5001620;28;20033;-82
2020/12/27 10:26:27;;;;;;;1.33;0.47;;;5.20;83.10;;;;;;5018660;28;20072;-81
2020/12/27 10:28:53;;;;;;;1.00;0.30;;;5.30;83.50;;;;;;5018415;28;20030;-82
2020/12/27 10:31:19;;;;;;;1.10;0.40;;;5.30;83.20;;;;;;5000931;28;20067;-82
2020/12/27 10:33:44;;;;;;;2.83;0.40;;;5.30;82.80;;;;;;5019214;28;20030;-82
2020/12/27 10:36:10;;;;;;;0.90;0.40;;;5.30;83.30;;;;;;5000227;28;20022;-82
2020/12/27 10:38:35;;;;;;;0.73;0.40;;;5.30;83.40;;;;;;5018771;28;20423;-81
2020/12/27 10:41:02;;;;;;;0.70;0.30;;;5.30;83.00;;;;;;5018408;28;20093;-82
2020/12/27 10:43:28;;;;;;;2.80;0.30;;;5.30;83.50;;;;;;5018751;28;20029;-81
2020/12/27 10:46:03;;;;;;;0.77;0.40;;;5.30;84.90;;;;;;5000968;28;20026;-82
2020/12/27 10:48:29;;;;;;;2.53;0.20;;;5.30;83.10;;;;;;5017420;28;20482;-82
2020/12/27 10:50:55;;;;;;;0.87;0.40;;;5.40;82.40;;;;;;5018386;28;20111;-82
2020/12/27 10:53:20;;;;;;;0.60;0.37;;;5.40;83.10;;;;;;5017834;28;20026;-82
2020/12/27 10:55:50;;;;;;;3.00;0.50;;;5.40;83.30;;;;;;5001374;28;20030;-82
2020/12/27 10:58:15;;;;;;;1.13;0.60;;;5.40;82.90;;;;;;5000140;28;20030;-82
2020/12/27 11:00:43;;;;;;;0.50;0.40;;;5.40;82.90;;;;;;4999668;28;20061;-82
2020/12/27 11:03:09;;;;;;;1.40;0.50;;;5.30;82.50;;;;;;5018719;28;20044;-82
2020/12/27 11:05:34;;;;;;;2.53;0.40;;;5.40;81.70;;;;;;5019076;28;20084;-82
2020/12/27 11:08:00;;;;;;;0.50;0.30;;;5.40;81.90;;;;;;5018664;28;20018;-82
2020/12/27 11:10:25;;;;;;;1.10;0.40;;;5.40;81.80;;;;;;5017855;28;20025;-81
2020/12/27 11:12:51;;;;;;;1.63;0.60;;;5.40;81.70;;;;;;5018892;28;20022;-82
2020/12/27 11:15:17;;;;;;;0.50;0.30;;;5.40;81.40;;;;;;5018652;28;20034;-82
2020/12/27 11:17:43;;;;;;;0.30;0.30;;;5.40;81.70;;;;;;5018929;28;20025;-82
2020/12/27 11:20:13;;;;;;;0.37;0.30;;;5.40;81.30;;;;;;5018027;28;20034;-82
2020/12/27 11:22:42;;;;;;;0.37;0.30;;;5.40;81.30;;;;;;5018067;28;20479;-82
2020/12/27 11:25:10;;;;;;;0.80;0.40;;;5.40;81.70;;;;;;5018719;28;20103;-82
2020/12/27 11:27:35;;;;;;;0.37;0.30;;;5.40;81.70;;;;;;5000677;28;20554;-82
2020/12/27 11:30:02;;;;;;;1.33;0.63;;;5.40;81.90;;;;;;5000809;28;20056;-82
2020/12/27 11:32:28;;;;;;;1.13;0.40;;;5.40;82.60;;;;;;5018442;28;20026;-82
2020/12/27 11:34:54;;;;;;;1.00;0.40;;;5.40;82.90;;;;;;5018895;28;20120;-82
2020/12/27 11:37:19;;;;;;;1.20;0.57;;;5.40;83.50;;;;;;5001528;28;20048;-82
2020/12/27 11:39:45;;;;;;;2.23;0.50;;;5.40;83.30;;;;;;5018829;28;20483;-82
2020/12/27 11:42:11;;;;;;;0.90;0.40;;;5.40;83.80;;;;;;5016610;28;20451;-81
2020/12/27 11:44:36;;;;;;;0.60;0.40;;;5.40;84.00;;;;;;4999404;28;20088;-81
2020/12/27 11:47:06;;;;;;;3.27;0.70;;;5.40;83.70;;;;;;5021318;28;20098;-80
2020/12/27 11:49:32;;;;;;;0.77;0.37;;;5.40;84.80;;;;;;5004416;28;20022;-80
2020/12/27 11:51:58;;;;;;;0.43;0.40;;;5.30;84.80;;;;;;5024090;28;20546;-82
2020/12/27 11:54:23;;;;;;;1.13;0.50;;;5.30;85.40;;;;;;5016569;28;20029;-81
2020/12/27 11:56:50;;;;;;;2.43;0.60;;;5.30;85.90;;;;;;5016471;28;20041;-81
2020/12/27 11:59:15;;;;;;;1.60;0.50;;;5.30;86.50;;;;;;5015937;28;20022;-82
2020/12/27 12:01:45;;;;;;;0.83;0.47;;;5.30;86.80;;;;;;4998563;28;20048;-82
2020/12/27 12:04:11;;;;;;;;;;;5.20;86.60;;;;;;4999416;28;20116;-82
2020/12/27 12:06:36;;;;;;;4.43;0.60;;;5.20;87.70;;;;;;5016177;28;19999;-82
2020/12/27 12:09:02;;;;;;;0.60;0.37;;;5.20;88.80;;;;;;4997428;28;20103;-81
2020/12/27 12:11:34;;;;;;;0.80;0.50;;;5.20;88.20;;;;;;5015461;28;20417;-81
2020/12/27 12:14:00;;;;;;;1.40;0.53;;;5.10;88.60;;;;;;5015768;28;20022;-81
2020/12/27 12:16:25;;;;;;;1.40;0.50;;;5.20;89.40;;;;;;4999250;28;20022;-82
2020/12/27 12:18:51;;;;;;;1.47;0.60;;;5.20;88.80;;;;;;5015663;28;20025;-82
2020/12/27 12:21:17;;;;;;;1.47;0.60;;;5.10;88.90;;;;;;5017086;28;20034;-83
2020/12/27 12:23:42;;;;;;;1.17;0.43;;;5.10;89.20;;;;;;4999707;28;20022;-81
2020/12/27 12:26:09;;;;;;;3.43;0.57;;;5.10;89.40;;;;;;5017775;28;20056;-82
2020/12/27 12:28:35;;;;;;;1.83;0.40;;;5.10;88.50;;;;;;5017602;28;20493;-82
2020/12/27 12:31:01;;;;;;;1.23;0.50;;;5.10;89.20;;;;;;4998365;28;20030;-82
2020/12/27 12:33:26;;;;;;;1.07;0.60;;;5.10;89.70;;;;;;5017700;28;20026;-82
2020/12/27 12:35:52;;;;;;;1.77;0.47;;;5.10;90.00;;;;;;5018138;28;20034;-82
2020/12/27 12:38:17;;;;;;;1.37;0.40;;;5.10;89.90;;;;;;5017865;28;20084;-83
2020/12/27 12:40:43;;;;;;;1.07;0.47;;;5.00;90.10;;;;;;5016435;28;20030;-81
2020/12/27 12:43:09;;;;;;;0.83;0.40;;;5.00;89.80;;;;;;5016781;28;20467;-82
2020/12/27 12:45:35;;;;;;;1.87;0.40;;;5.00;89.70;;;;;;4998937;28;20029;-82
2020/12/27 12:48:04;;;;;;;1.37;0.50;;;5.00;89.80;;;;;;5016848;28;20041;-82
2020/12/27 12:50:29;;;;;;;1.02;0.38;;;5.00;90.30;;;;;;5017292;28;20105;-82
2020/12/27 12:52:55;;;;;;;1.50;0.40;;;5.00;90.10;;;;;;4999165;28;20521;-82
2020/12/27 12:55:20;;;;;;;0.87;0.37;;;5.00;90.60;;;;;;5016447;28;20382;-82
2020/12/27 12:57:46;;;;;;;1.13;0.50;;;4.90;90.20;;;;;;5016480;28;20115;-82
2020/12/27 13:00:12;;;;;;;1.10;0.30;;;4.90;90.40;;;;;;5015822;28;20022;-82
2020/12/27 13:02:37;;;;;;;0.40;0.30;;;5.00;90.60;;;;;;5016961;28;20030;-81